TimeCDT,TemperatureF,Dew PointF,Humidity,Sea Level PressureIn,VisibilityMPH,Wind Direction,Wind SpeedMPH,Gust SpeedMPH,PrecipitationIn,Events,Conditions,WindDirDegrees,DateUTC
12:15 AM,48.2,45.3,90,30.11,10.0,Calm,Calm,-,N/A,,Clear,0,2013-10-10 05:15:00
12:35 AM,46.4,44.4,93,30.11,10.0,Calm,Calm,-,N/A,,Clear,0,2013-10-10 05:35:00
12:55 AM,46.6,44.4,92,30.11,10.0,Calm,Calm,-,N/A,,Clear,0,2013-10-10 05:55:00
1:15 AM,46.2,45.1,96,30.12,10.0,Calm,Calm,-,N/A,,Clear,0,2013-10-10 06:15:00
1:35 AM,44.6,43.9,97,30.12,10.0,Calm,Calm,-,N/A,,Clear,0,2013-10-10 06:35:00
1:55 AM,44.1,42.8,95,30.12,10.0,Calm,Calm,-,N/A,,Clear,0,2013-10-10 06:55:00
2:15 AM,43.5,42.8,97,30.12,10.0,Calm,Calm,-,N/A,,Clear,0,2013-10-10 07:15:00
2:35 AM,42.8,41.7,96,30.12,10.0,Calm,Calm,-,N/A,,Clear,0,2013-10-10 07:35:00
2:55 AM,42.6,41.4,95,30.12,10.0,Calm,Calm,-,N/A,,Clear,0,2013-10-10 07:55:00
3:15 AM,42.8,41.9,97,30.12,7.0,Calm,Calm,-,N/A,,Clear,0,2013-10-10 08:15:00
3:35 AM,43.9,42.4,95,30.12,10.0,Calm,Calm,-,N/A,,Clear,0,2013-10-10 08:35:00
3:55 AM,44.1,42.8,95,30.12,10.0,Calm,Calm,-,N/A,,Clear,0,2013-10-10 08:55:00
4:15 AM,42.8,41.4,95,30.12,10.0,Calm,Calm,-,N/A,,Clear,0,2013-10-10 09:15:00
4:35 AM,43.0,41.9,96,30.13,10.0,Calm,Calm,-,N/A,,Clear,0,2013-10-10 09:35:00
4:55 AM,41.5,41.0,98,30.13,10.0,Calm,Calm,-,N/A,,Clear,0,2013-10-10 09:55:00
5:15 AM,41.2,40.1,96,30.13,10.0,Calm,Calm,-,N/A,,Clear,0,2013-10-10 10:15:00
5:35 AM,41.0,39.9,96,30.13,10.0,Calm,Calm,-,N/A,,Clear,0,2013-10-10 10:35:00
5:55 AM,40.6,39.9,97,30.12,10.0,Calm,Calm,-,N/A,,Clear,0,2013-10-10 10:55:00
6:15 AM,40.5,39.2,95,30.12,10.0,Calm,Calm,-,N/A,,Clear,0,2013-10-10 11:15:00
6:35 AM,41.0,40.1,97,30.12,10.0,Calm,Calm,-,N/A,,Clear,0,2013-10-10 11:35:00
6:55 AM,41.9,40.1,93,30.12,10.0,Calm,Calm,-,N/A,,Clear,0,2013-10-10 11:55:00
7:15 AM,41.5,39.9,94,30.12,10.0,Calm,Calm,-,N/A,,Clear,0,2013-10-10 12:15:00
7:35 AM,42.8,40.5,91,30.12,10.0,Calm,Calm,-,N/A,,Clear,0,2013-10-10 12:35:00
7:55 AM,43.5,40.6,90,30.12,10.0,Calm,Calm,-,N/A,,Clear,0,2013-10-10 12:55:00
8:15 AM,46.2,42.6,87,30.12,10.0,Calm,Calm,-,N/A,,Clear,0,2013-10-10 13:15:00
8:35 AM,48.9,43.9,83,30.12,10.0,Calm,Calm,-,N/A,,Clear,0,2013-10-10 13:35:00
8:55 AM,52.2,45.3,78,30.12,10.0,SE,3.5,-,N/A,,Clear,130,2013-10-10 13:55:00
9:15 AM,54.0,45.7,74,30.12,10.0,Calm,Calm,-,N/A,,Clear,0,2013-10-10 14:15:00
9:35 AM,55.4,45.0,68,30.12,10.0,SSE,3.5,-,N/A,,Clear,150,2013-10-10 14:35:00
9:55 AM,57.2,45.1,64,30.12,10.0,SSE,5.8,-,N/A,,Clear,160,2013-10-10 14:55:00
10:15 AM,58.5,45.5,62,30.12,10.0,SSE,4.6,-,N/A,,Clear,150,2013-10-10 15:15:00
10:35 AM,59.9,45.1,58,30.11,10.0,SSE,8.1,-,N/A,,Clear,160,2013-10-10 15:35:00
10:55 AM,60.8,45.9,58,30.11,10.0,SE,8.1,-,N/A,,Clear,140,2013-10-10 15:55:00
11:15 AM,61.9,45.5,55,30.10,10.0,SSE,8.1,-,N/A,,Clear,150,2013-10-10 16:15:00
11:35 AM,64.0,46.4,53,30.10,10.0,SE,9.2,-,N/A,,Clear,140,2013-10-10 16:35:00
11:55 AM,64.4,45.5,50,30.09,10.0,SSE,8.1,-,N/A,,Clear,160,2013-10-10 16:55:00
12:15 PM,66.6,45.5,47,30.08,10.0,South,11.5,16.1,N/A,,Clear,180,2013-10-10 17:15:00
12:35 PM,66.7,43.2,42,30.08,10.0,SSE,12.7,17.3,N/A,,Clear,160,2013-10-10 17:35:00
12:55 PM,66.9,44.1,44,30.08,10.0,SSE,11.5,-,N/A,,Clear,160,2013-10-10 17:55:00
1:15 PM,67.1,45.0,45,30.07,10.0,SE,8.1,-,N/A,,Clear,140,2013-10-10 18:15:00
1:35 PM,67.5,45.5,45,30.07,10.0,South,6.9,-,N/A,,Clear,170,2013-10-10 18:35:00
1:55 PM,67.3,44.6,44,30.06,10.0,SSE,8.1,-,N/A,,Clear,160,2013-10-10 18:55:00
2:15 PM,68.4,44.8,43,30.06,10.0,South,9.2,-,N/A,,Clear,180,2013-10-10 19:15:00
2:35 PM,68.9,44.6,42,30.05,10.0,SE,11.5,-,N/A,,Clear,140,2013-10-10 19:35:00
2:55 PM,68.9,43.7,40,30.04,10.0,SSE,12.7,16.1,N/A,,Clear,150,2013-10-10 19:55:00
3:15 PM,69.3,44.8,41,30.04,10.0,SSE,10.4,17.3,N/A,,Clear,150,2013-10-10 20:15:00
3:35 PM,69.6,43.3,39,30.04,10.0,SSE,12.7,17.3,N/A,,Clear,150,2013-10-10 20:35:00
3:55 PM,69.1,44.4,41,30.03,10.0,SSE,9.2,-,N/A,,Clear,160,2013-10-10 20:55:00
4:15 PM,69.1,43.3,39,30.03,10.0,SSW,11.5,-,N/A,,Clear,200,2013-10-10 21:15:00
4:35 PM,68.5,43.5,40,30.03,10.0,South,8.1,-,N/A,,Clear,180,2013-10-10 21:35:00
4:55 PM,68.4,43.7,41,30.02,10.0,South,9.2,-,N/A,,Clear,170,2013-10-10 21:55:00
5:15 PM,67.6,43.5,42,30.03,10.0,SSE,9.2,-,N/A,,Clear,160,2013-10-10 22:15:00
5:35 PM,66.7,43.2,42,30.03,10.0,South,11.5,-,N/A,,Clear,180,2013-10-10 22:35:00
5:55 PM,65.5,44.6,47,30.03,10.0,South,6.9,-,N/A,,Clear,170,2013-10-10 22:55:00
6:15 PM,63.9,45.0,50,30.02,10.0,SSE,5.8,-,N/A,,Clear,160,2013-10-10 23:15:00
6:35 PM,62.6,45.0,52,30.02,10.0,SSE,3.5,-,N/A,,Clear,160,2013-10-10 23:35:00
6:55 PM,60.8,45.5,57,30.02,10.0,SE,4.6,-,N/A,,Clear,140,2013-10-10 23:55:00
7:15 PM,59.2,45.9,61,30.01,10.0,SE,3.5,-,N/A,,Clear,140,2013-10-11 00:15:00
7:35 PM,58.6,45.5,62,30.02,10.0,SE,3.5,-,N/A,,Clear,140,2013-10-11 00:35:00
7:55 PM,58.3,45.0,61,30.02,10.0,SE,3.5,-,N/A,,Clear,140,2013-10-11 00:55:00
8:15 PM,57.4,44.6,62,30.02,10.0,Calm,Calm,-,N/A,,Clear,0,2013-10-11 01:15:00
8:35 PM,57.2,44.4,62,30.02,10.0,ESE,3.5,-,N/A,,Clear,110,2013-10-11 01:35:00
8:55 PM,56.1,43.9,64,30.02,10.0,East,3.5,-,N/A,,Clear,100,2013-10-11 01:55:00
9:15 PM,54.7,43.9,67,30.02,10.0,East,3.5,-,N/A,,Clear,100,2013-10-11 02:15:00
9:35 PM,54.3,43.9,68,30.02,10.0,Calm,Calm,-,N/A,,Clear,0,2013-10-11 02:35:00
9:55 PM,53.2,44.2,72,30.02,10.0,Calm,Calm,-,N/A,,Clear,0,2013-10-11 02:55:00
10:15 PM,52.0,44.1,74,30.03,10.0,Calm,Calm,-,N/A,,Clear,0,2013-10-11 03:15:00
10:35 PM,50.2,45.0,82,30.03,10.0,Calm,Calm,-,N/A,,Clear,0,2013-10-11 03:35:00
10:55 PM,49.6,44.2,82,30.03,10.0,East,3.5,-,N/A,,Clear,90,2013-10-11 03:55:00
11:15 PM,49.1,44.2,83,30.03,10.0,Calm,Calm,-,N/A,,Clear,0,2013-10-11 04:15:00
11:35 PM,46.9,43.0,86,30.02,10.0,Calm,Calm,-,N/A,,Clear,0,2013-10-11 04:35:00
11:55 PM,47.3,43.9,88,30.02,10.0,Calm,Calm,-,N/A,,Clear,0,2013-10-11 04:55:00